Terminal Aerodrome Forecast
Issued by NWS

Home | Current Version | Previous Version | Text Only | Print | Product List | Glossary On
Versions: 1 2 3 4 5 6 7 8 9 10 11 12
000
FTUS45 KRIW 201700
TAFJAC
TAF
KJAC 201721Z 2018/2118 23010G20KT P6SM SCT070 SCT100
     FM210100 19006KT P6SM FEW070
     FM210500 36005KT P6SM FEW250
     FM211700 19009KT P6SM SCT060 BKN150
      AMD LTD TO CLD VIS AND WIND=

USA.gov is the U.S. government's official web portal to all federal, state and local government web resources and services.